sensor_id;sensor_type;location;lat;lon;timestamp;temperature;humidity
12436;DHT22;6282;51.440;6.938;2023-01-15T00:01:36;6.90;99.90
12436;DHT22;6282;51.440;6.938;2023-01-15T00:04:05;7.10;99.90
12436;DHT22;6282;51.440;6.938;2023-01-15T00:06:35;6.90;99.90
12436;DHT22;6282;51.440;6.938;2023-01-15T00:09:03;6.80;99.90
12436;DHT22;6282;51.440;6.938;2023-01-15T00:11:30;6.70;99.90
12436;DHT22;6282;51.440;6.938;2023-01-15T00:13:56;6.60;99.90
12436;DHT22;6282;51.440;6.938;2023-01-15T00:16:25;6.80;99.90
12436;DHT22;6282;51.440;6.938;2023-01-15T00:18:54;6.80;99.90
12436;DHT22;6282;51.440;6.938;2023-01-15T00:21:21;6.90;99.90
12436;DHT22;6282;51.440;6.938;2023-01-15T00:23:49;6.80;99.90
12436;DHT22;6282;51.440;6.938;2023-01-15T00:26:34;6.90;99.90
12436;DHT22;6282;51.440;6.938;2023-01-15T00:29:19;6.70;99.90
12436;DHT22;6282;51.440;6.938;2023-01-15T00:31:52;6.60;99.90
12436;DHT22;6282;51.440;6.938;2023-01-15T00:34:21;6.60;99.90
12436;DHT22;6282;51.440;6.938;2023-01-15T00:37:03;6.70;99.90
12436;DHT22;6282;51.440;6.938;2023-01-15T00:39:30;6.70;99.90
12436;DHT22;6282;51.440;6.938;2023-01-15T00:41:57;6.60;99.90
12436;DHT22;6282;51.440;6.938;2023-01-15T00:44:24;6.50;99.90
12436;DHT22;6282;51.440;6.938;2023-01-15T00:46:51;6.50;99.90
12436;DHT22;6282;51.440;6.938;2023-01-15T00:49:18;6.50;99.90
12436;DHT22;6282;51.440;6.938;2023-01-15T00:51:46;6.50;99.90
12436;DHT22;6282;51.440;6.938;2023-01-15T00:54:14;6.50;99.90
12436;DHT22;6282;51.440;6.938;2023-01-15T00:56:41;6.50;99.90
12436;DHT22;6282;51.440;6.938;2023-01-15T00:59:08;6.50;99.90
12436;DHT22;6282;51.440;6.938;2023-01-15T01:01:35;6.50;99.90
12436;DHT22;6282;51.440;6.938;2023-01-15T01:04:01;6.60;99.90
12436;DHT22;6282;51.440;6.938;2023-01-15T01:06:28;6.50;99.90
12436;DHT22;6282;51.440;6.938;2023-01-15T01:08:56;6.50;99.90
12436;DHT22;6282;51.440;6.938;2023-01-15T01:11:25;6.50;99.90
12436;DHT22;6282;51.440;6.938;2023-01-15T01:13:53;6.50;99.90
12436;DHT22;6282;51.440;6.938;2023-01-15T01:16:26;6.70;99.90
12436;DHT22;6282;51.440;6.938;2023-01-15T01:18:56;6.60;99.90
12436;DHT22;6282;51.440;6.938;2023-01-15T01:21:24;6.50;99.90
12436;DHT22;6282;51.440;6.938;2023-01-15T01:23:51;6.60;99.90
12436;DHT22;6282;51.440;6.938;2023-01-15T01:26:19;6.60;99.90
12436;DHT22;6282;51.440;6.938;2023-01-15T01:28:50;6.60;99.90
12436;DHT22;6282;51.440;6.938;2023-01-15T01:31:17;6.60;99.90
12436;DHT22;6282;51.440;6.938;2023-01-15T01:33:47;6.60;99.90
12436;DHT22;6282;51.440;6.938;2023-01-15T01:36:14;6.60;99.90
12436;DHT22;6282;51.440;6.938;2023-01-15T01:38:41;6.60;99.90
12436;DHT22;6282;51.440;6.938;2023-01-15T01:41:08;6.60;99.90
12436;DHT22;6282;51.440;6.938;2023-01-15T01:43:52;6.70;99.90
12436;DHT22;6282;51.440;6.938;2023-01-15T01:46:19;6.60;99.90
12436;DHT22;6282;51.440;6.938;2023-01-15T01:48:47;6.80;99.90
12436;DHT22;6282;51.440;6.938;2023-01-15T01:51:14;6.60;99.90
12436;DHT22;6282;51.440;6.938;2023-01-15T01:53:42;6.60;99.90
12436;DHT22;6282;51.440;6.938;2023-01-15T01:56:10;6.50;99.90
12436;DHT22;6282;51.440;6.938;2023-01-15T01:58:37;6.50;99.90
12436;DHT22;6282;51.440;6.938;2023-01-15T02:01:05;6.50;99.90
12436;DHT22;6282;51.440;6.938;2023-01-15T02:03:36;6.50;99.90
12436;DHT22;6282;51.440;6.938;2023-01-15T02:06:08;6.50;99.90
12436;DHT22;6282;51.440;6.938;2023-01-15T02:08:35;6.50;99.90
12436;DHT22;6282;51.440;6.938;2023-01-15T02:11:05;6.40;99.90
12436;DHT22;6282;51.440;6.938;2023-01-15T02:13:36;6.50;99.90
12436;DHT22;6282;51.440;6.938;2023-01-15T02:16:09;6.50;99.90
12436;DHT22;6282;51.440;6.938;2023-01-15T02:18:42;6.50;99.90
12436;DHT22;6282;51.440;6.938;2023-01-15T02:21:18;6.50;99.90
12436;DHT22;6282;51.440;6.938;2023-01-15T02:24:05;6.50;99.90
12436;DHT22;6282;51.440;6.938;2023-01-15T02:27:02;6.50;99.90
12436;DHT22;6282;51.440;6.938;2023-01-15T02:29:41;6.50;99.90
12436;DHT22;6282;51.440;6.938;2023-01-15T02:32:13;6.50;99.90
12436;DHT22;6282;51.440;6.938;2023-01-15T02:34:44;6.50;99.90
12436;DHT22;6282;51.440;6.938;2023-01-15T02:37:15;6.60;99.90
12436;DHT22;6282;51.440;6.938;2023-01-15T02:39:44;6.50;99.90
12436;DHT22;6282;51.440;6.938;2023-01-15T02:42:15;6.50;99.90
12436;DHT22;6282;51.440;6.938;2023-01-15T02:44:46;6.40;99.90
12436;DHT22;6282;51.440;6.938;2023-01-15T02:47:15;6.40;99.90
12436;DHT22;6282;51.440;6.938;2023-01-15T02:49:43;6.40;99.90
12436;DHT22;6282;51.440;6.938;2023-01-15T02:52:14;6.40;99.90
12436;DHT22;6282;51.440;6.938;2023-01-15T02:54:46;6.50;99.90
12436;DHT22;6282;51.440;6.938;2023-01-15T02:57:15;6.50;99.90
12436;DHT22;6282;51.440;6.938;2023-01-15T02:59:47;6.50;99.90
12436;DHT22;6282;51.440;6.938;2023-01-15T03:02:18;6.40;99.90
12436;DHT22;6282;51.440;6.938;2023-01-15T03:04:50;6.40;99.90
12436;DHT22;6282;51.440;6.938;2023-01-15T03:07:21;6.40;99.90
12436;DHT22;6282;51.440;6.938;2023-01-15T03:09:51;6.40;99.90
12436;DHT22;6282;51.440;6.938;2023-01-15T03:12:23;6.50;99.90
12436;DHT22;6282;51.440;6.938;2023-01-15T03:14:58;6.50;99.90
12436;DHT22;6282;51.440;6.938;2023-01-15T03:17:33;6.50;99.90
12436;DHT22;6282;51.440;6.938;2023-01-15T03:20:05;6.40;99.90
12436;DHT22;6282;51.440;6.938;2023-01-15T03:22:36;6.50;99.90
12436;DHT22;6282;51.440;6.938;2023-01-15T03:25:07;6.50;99.90
12436;DHT22;6282;51.440;6.938;2023-01-15T03:27:37;6.40;99.90
12436;DHT22;6282;51.440;6.938;2023-01-15T03:30:06;6.30;99.90
12436;DHT22;6282;51.440;6.938;2023-01-15T03:32:33;6.30;99.90
12436;DHT22;6282;51.440;6.938;2023-01-15T03:35:01;6.30;99.90
12436;DHT22;6282;51.440;6.938;2023-01-15T03:37:29;6.30;99.90
12436;DHT22;6282;51.440;6.938;2023-01-15T03:39:58;6.30;99.90
12436;DHT22;6282;51.440;6.938;2023-01-15T03:42:43;6.30;99.90
12436;DHT22;6282;51.440;6.938;2023-01-15T03:45:14;6.30;99.90
12436;DHT22;6282;51.440;6.938;2023-01-15T03:47:51;6.30;99.90
12436;DHT22;6282;51.440;6.938;2023-01-15T03:50:26;6.40;99.90
12436;DHT22;6282;51.440;6.938;2023-01-15T03:52:59;6.40;99.90
12436;DHT22;6282;51.440;6.938;2023-01-15T03:55:38;6.40;99.90
12436;DHT22;6282;51.440;6.938;2023-01-15T03:58:12;6.40;99.90
12436;DHT22;6282;51.440;6.938;2023-01-15T04:00:42;6.40;99.90
12436;DHT22;6282;51.440;6.938;2023-01-15T04:03:10;6.40;99.90
12436;DHT22;6282;51.440;6.938;2023-01-15T04:05:39;6.40;99.90
12436;DHT22;6282;51.440;6.938;2023-01-15T04:08:06;6.40;99.90
12436;DHT22;6282;51.440;6.938;2023-01-15T04:10:33;6.40;99.90
12436;DHT22;6282;51.440;6.938;2023-01-15T04:13:00;6.40;99.90
12436;DHT22;6282;51.440;6.938;2023-01-15T04:15:28;6.40;99.90
12436;DHT22;6282;51.440;6.938;2023-01-15T04:17:54;6.40;99.90
12436;DHT22;6282;51.440;6.938;2023-01-15T04:20:21;6.40;99.90
12436;DHT22;6282;51.440;6.938;2023-01-15T04:22:48;6.40;99.90
12436;DHT22;6282;51.440;6.938;2023-01-15T04:25:15;6.50;99.90
12436;DHT22;6282;51.440;6.938;2023-01-15T04:27:42;6.50;99.90
12436;DHT22;6282;51.440;6.938;2023-01-15T04:30:10;6.50;99.90
12436;DHT22;6282;51.440;6.938;2023-01-15T04:32:38;6.40;99.90
12436;DHT22;6282;51.440;6.938;2023-01-15T04:35:05;6.50;99.90
12436;DHT22;6282;51.440;6.938;2023-01-15T04:37:32;6.50;99.90
12436;DHT22;6282;51.440;6.938;2023-01-15T04:39:59;6.50;99.90
12436;DHT22;6282;51.440;6.938;2023-01-15T04:42:26;6.40;99.90
12436;DHT22;6282;51.440;6.938;2023-01-15T04:45:10;6.40;99.90
12436;DHT22;6282;51.440;6.938;2023-01-15T04:47:39;6.50;99.90
12436;DHT22;6282;51.440;6.938;2023-01-15T04:50:06;6.50;99.90
12436;DHT22;6282;51.440;6.938;2023-01-15T04:52:33;6.50;99.90
12436;DHT22;6282;51.440;6.938;2023-01-15T04:55:00;6.50;99.90
12436;DHT22;6282;51.440;6.938;2023-01-15T04:57:27;6.40;99.90
12436;DHT22;6282;51.440;6.938;2023-01-15T04:59:55;6.50;99.90
12436;DHT22;6282;51.440;6.938;2023-01-15T05:02:22;6.40;99.90
12436;DHT22;6282;51.440;6.938;2023-01-15T05:04:51;6.40;99.90
12436;DHT22;6282;51.440;6.938;2023-01-15T05:07:17;6.40;99.90
12436;DHT22;6282;51.440;6.938;2023-01-15T05:09:44;6.40;99.90
12436;DHT22;6282;51.440;6.938;2023-01-15T05:12:13;6.40;99.90
12436;DHT22;6282;51.440;6.938;2023-01-15T05:14:40;6.40;99.90
12436;DHT22;6282;51.440;6.938;2023-01-15T05:17:07;6.40;99.90
12436;DHT22;6282;51.440;6.938;2023-01-15T05:19:33;6.40;99.90
12436;DHT22;6282;51.440;6.938;2023-01-15T05:22:02;6.40;99.90
12436;DHT22;6282;51.440;6.938;2023-01-15T05:24:28;6.30;99.90
12436;DHT22;6282;51.440;6.938;2023-01-15T05:26:55;6.40;99.90
12436;DHT22;6282;51.440;6.938;2023-01-15T05:29:23;6.50;99.90
12436;DHT22;6282;51.440;6.938;2023-01-15T05:31:49;6.40;99.90
12436;DHT22;6282;51.440;6.938;2023-01-15T05:34:16;6.40;99.90
12436;DHT22;6282;51.440;6.938;2023-01-15T05:36:43;6.50;99.90
12436;DHT22;6282;51.440;6.938;2023-01-15T05:39:11;6.40;99.90
12436;DHT22;6282;51.440;6.938;2023-01-15T05:41:38;6.40;99.90
12436;DHT22;6282;51.440;6.938;2023-01-15T05:44:16;6.40;99.90
12436;DHT22;6282;51.440;6.938;2023-01-15T05:46:43;6.50;99.90
12436;DHT22;6282;51.440;6.938;2023-01-15T05:49:12;6.50;99.90
12436;DHT22;6282;51.440;6.938;2023-01-15T05:51:40;6.50;99.90
12436;DHT22;6282;51.440;6.938;2023-01-15T05:54:10;6.50;99.90
12436;DHT22;6282;51.440;6.938;2023-01-15T05:56:39;6.60;99.90
12436;DHT22;6282;51.440;6.938;2023-01-15T05:59:06;6.70;99.90
12436;DHT22;6282;51.440;6.938;2023-01-15T06:01:34;6.70;99.90
12436;DHT22;6282;51.440;6.938;2023-01-15T06:04:02;6.60;99.90
12436;DHT22;6282;51.440;6.938;2023-01-15T06:06:30;6.60;99.90
12436;DHT22;6282;51.440;6.938;2023-01-15T06:08:57;6.60;99.90
12436;DHT22;6282;51.440;6.938;2023-01-15T06:11:24;6.60;99.90
12436;DHT22;6282;51.440;6.938;2023-01-15T06:13:52;6.60;99.90
12436;DHT22;6282;51.440;6.938;2023-01-15T06:16:19;6.60;99.90
12436;DHT22;6282;51.440;6.938;2023-01-15T06:18:46;6.70;99.90
12436;DHT22;6282;51.440;6.938;2023-01-15T06:21:13;6.70;99.90
12436;DHT22;6282;51.440;6.938;2023-01-15T06:23:41;6.60;99.90
12436;DHT22;6282;51.440;6.938;2023-01-15T06:26:11;6.60;99.90
12436;DHT22;6282;51.440;6.938;2023-01-15T06:28:39;6.60;99.90
12436;DHT22;6282;51.440;6.938;2023-01-15T06:31:09;6.70;99.90
12436;DHT22;6282;51.440;6.938;2023-01-15T06:33:36;6.60;99.90
12436;DHT22;6282;51.440;6.938;2023-01-15T06:36:04;6.70;99.90
12436;DHT22;6282;51.440;6.938;2023-01-15T06:38:31;6.70;99.90
12436;DHT22;6282;51.440;6.938;2023-01-15T06:40:59;6.70;99.90
12436;DHT22;6282;51.440;6.938;2023-01-15T06:43:27;6.60;99.90
12436;DHT22;6282;51.440;6.938;2023-01-15T06:46:13;6.80;99.90
12436;DHT22;6282;51.440;6.938;2023-01-15T06:48:59;6.70;99.90
12436;DHT22;6282;51.440;6.938;2023-01-15T06:51:26;6.70;99.90
12436;DHT22;6282;51.440;6.938;2023-01-15T06:53:52;6.60;99.90
12436;DHT22;6282;51.440;6.938;2023-01-15T06:56:19;6.60;99.90
12436;DHT22;6282;51.440;6.938;2023-01-15T06:58:46;6.60;99.90
12436;DHT22;6282;51.440;6.938;2023-01-15T07:01:14;6.70;99.90
12436;DHT22;6282;51.440;6.938;2023-01-15T07:03:41;6.70;99.90
12436;DHT22;6282;51.440;6.938;2023-01-15T07:06:09;6.70;99.90
12436;DHT22;6282;51.440;6.938;2023-01-15T07:08:36;6.60;99.90
12436;DHT22;6282;51.440;6.938;2023-01-15T07:11:04;6.70;99.90
12436;DHT22;6282;51.440;6.938;2023-01-15T07:13:32;6.60;99.90
12436;DHT22;6282;51.440;6.938;2023-01-15T07:15:59;6.60;99.90
12436;DHT22;6282;51.440;6.938;2023-01-15T07:18:29;6.60;99.90
12436;DHT22;6282;51.440;6.938;2023-01-15T07:20:56;6.70;99.90
12436;DHT22;6282;51.440;6.938;2023-01-15T07:23:24;6.60;99.90
12436;DHT22;6282;51.440;6.938;2023-01-15T07:25:51;6.60;99.90
12436;DHT22;6282;51.440;6.938;2023-01-15T07:28:19;6.50;99.90
12436;DHT22;6282;51.440;6.938;2023-01-15T07:30:45;6.60;99.90
12436;DHT22;6282;51.440;6.938;2023-01-15T07:33:13;6.60;99.90
12436;DHT22;6282;51.440;6.938;2023-01-15T07:35:41;6.50;99.90
12436;DHT22;6282;51.440;6.938;2023-01-15T07:38:08;6.50;99.90
12436;DHT22;6282;51.440;6.938;2023-01-15T07:40:34;6.50;99.90
12436;DHT22;6282;51.440;6.938;2023-01-15T07:43:02;6.50;99.90
12436;DHT22;6282;51.440;6.938;2023-01-15T07:45:47;6.50;99.90
12436;DHT22;6282;51.440;6.938;2023-01-15T07:48:32;6.50;99.90
12436;DHT22;6282;51.440;6.938;2023-01-15T07:51:18;6.50;99.90
12436;DHT22;6282;51.440;6.938;2023-01-15T07:53:44;6.50;99.90
12436;DHT22;6282;51.440;6.938;2023-01-15T07:56:11;6.50;99.90
12436;DHT22;6282;51.440;6.938;2023-01-15T07:58:38;6.50;99.90
12436;DHT22;6282;51.440;6.938;2023-01-15T08:01:05;6.50;99.90
12436;DHT22;6282;51.440;6.938;2023-01-15T08:03:32;6.40;99.90
12436;DHT22;6282;51.440;6.938;2023-01-15T08:05:59;6.40;99.90
12436;DHT22;6282;51.440;6.938;2023-01-15T08:08:27;6.50;99.90
12436;DHT22;6282;51.440;6.938;2023-01-15T08:10:54;6.50;99.90
12436;DHT22;6282;51.440;6.938;2023-01-15T08:13:38;6.50;99.90
12436;DHT22;6282;51.440;6.938;2023-01-15T08:16:22;6.50;99.90
12436;DHT22;6282;51.440;6.938;2023-01-15T08:18:49;6.50;99.90
12436;DHT22;6282;51.440;6.938;2023-01-15T08:21:16;6.50;99.90
12436;DHT22;6282;51.440;6.938;2023-01-15T08:23:45;6.50;99.90
12436;DHT22;6282;51.440;6.938;2023-01-15T08:26:12;6.50;99.90
12436;DHT22;6282;51.440;6.938;2023-01-15T08:28:39;6.50;99.90
12436;DHT22;6282;51.440;6.938;2023-01-15T08:31:06;6.50;99.90
12436;DHT22;6282;51.440;6.938;2023-01-15T08:33:33;6.50;99.90
12436;DHT22;6282;51.440;6.938;2023-01-15T08:36:00;6.50;99.90
12436;DHT22;6282;51.440;6.938;2023-01-15T08:38:27;6.50;99.90
12436;DHT22;6282;51.440;6.938;2023-01-15T08:40:55;6.50;99.90
12436;DHT22;6282;51.440;6.938;2023-01-15T08:43:26;6.50;99.90
12436;DHT22;6282;51.440;6.938;2023-01-15T08:45:55;6.50;99.90
12436;DHT22;6282;51.440;6.938;2023-01-15T08:48:23;6.40;99.90
12436;DHT22;6282;51.440;6.938;2023-01-15T08:50:50;6.40;99.90
12436;DHT22;6282;51.440;6.938;2023-01-15T08:53:17;6.40;99.90
12436;DHT22;6282;51.440;6.938;2023-01-15T08:55:44;6.40;99.90
12436;DHT22;6282;51.440;6.938;2023-01-15T08:58:13;6.30;99.90
12436;DHT22;6282;51.440;6.938;2023-01-15T09:00:40;6.30;99.90
12436;DHT22;6282;51.440;6.938;2023-01-15T09:03:07;6.30;99.90
12436;DHT22;6282;51.440;6.938;2023-01-15T09:05:35;6.30;99.90
12436;DHT22;6282;51.440;6.938;2023-01-15T09:08:03;6.40;99.90
12436;DHT22;6282;51.440;6.938;2023-01-15T09:10:30;6.30;99.90
12436;DHT22;6282;51.440;6.938;2023-01-15T09:12:58;6.30;99.90
12436;DHT22;6282;51.440;6.938;2023-01-15T09:15:27;6.20;99.90
12436;DHT22;6282;51.440;6.938;2023-01-15T09:17:54;6.20;99.90
12436;DHT22;6282;51.440;6.938;2023-01-15T09:20:22;6.10;99.90
12436;DHT22;6282;51.440;6.938;2023-01-15T09:22:49;6.00;99.90
12436;DHT22;6282;51.440;6.938;2023-01-15T09:25:16;6.00;99.90
12436;DHT22;6282;51.440;6.938;2023-01-15T09:27:44;6.20;99.90
12436;DHT22;6282;51.440;6.938;2023-01-15T09:30:16;6.40;99.90
12436;DHT22;6282;51.440;6.938;2023-01-15T09:32:44;6.40;99.90
12436;DHT22;6282;51.440;6.938;2023-01-15T09:35:12;6.40;99.90
12436;DHT22;6282;51.440;6.938;2023-01-15T09:37:38;6.50;99.90
12436;DHT22;6282;51.440;6.938;2023-01-15T09:40:07;6.40;99.90
12436;DHT22;6282;51.440;6.938;2023-01-15T09:42:44;6.40;99.90
12436;DHT22;6282;51.440;6.938;2023-01-15T09:45:22;6.50;99.90
12436;DHT22;6282;51.440;6.938;2023-01-15T09:48:11;6.30;99.90
12436;DHT22;6282;51.440;6.938;2023-01-15T09:50:51;6.30;99.90
12436;DHT22;6282;51.440;6.938;2023-01-15T09:53:40;6.40;99.90
12436;DHT22;6282;51.440;6.938;2023-01-15T09:56:18;6.60;99.90
12436;DHT22;6282;51.440;6.938;2023-01-15T09:58:45;6.70;99.90
12436;DHT22;6282;51.440;6.938;2023-01-15T10:01:15;6.70;99.90
12436;DHT22;6282;51.440;6.938;2023-01-15T10:03:46;6.70;99.90
12436;DHT22;6282;51.440;6.938;2023-01-15T10:06:19;6.80;99.90
12436;DHT22;6282;51.440;6.938;2023-01-15T10:08:48;6.60;99.90
12436;DHT22;6282;51.440;6.938;2023-01-15T10:11:33;6.60;99.90
12436;DHT22;6282;51.440;6.938;2023-01-15T10:14:30;6.70;99.90
12436;DHT22;6282;51.440;6.938;2023-01-15T10:17:05;6.80;99.90
12436;DHT22;6282;51.440;6.938;2023-01-15T10:19:33;6.80;99.90
12436;DHT22;6282;51.440;6.938;2023-01-15T10:22:03;6.80;99.90
12436;DHT22;6282;51.440;6.938;2023-01-15T10:24:37;6.90;99.90
12436;DHT22;6282;51.440;6.938;2023-01-15T10:27:10;7.00;99.90
12436;DHT22;6282;51.440;6.938;2023-01-15T10:29:43;7.00;99.90
12436;DHT22;6282;51.440;6.938;2023-01-15T10:32:22;7.00;99.90
12436;DHT22;6282;51.440;6.938;2023-01-15T10:35:14;7.00;99.90
12436;DHT22;6282;51.440;6.938;2023-01-15T10:37:47;6.80;99.90
12436;DHT22;6282;51.440;6.938;2023-01-15T10:40:44;6.90;99.90
12436;DHT22;6282;51.440;6.938;2023-01-15T10:43:17;7.00;99.90
12436;DHT22;6282;51.440;6.938;2023-01-15T10:45:46;7.20;99.90
12436;DHT22;6282;51.440;6.938;2023-01-15T10:48:20;7.20;99.90
12436;DHT22;6282;51.440;6.938;2023-01-15T10:50:51;7.30;99.90
12436;DHT22;6282;51.440;6.938;2023-01-15T10:53:28;7.30;99.90
12436;DHT22;6282;51.440;6.938;2023-01-15T10:56:01;7.30;99.90
12436;DHT22;6282;51.440;6.938;2023-01-15T10:58:34;7.60;99.90
12436;DHT22;6282;51.440;6.938;2023-01-15T11:01:05;7.80;99.90
12436;DHT22;6282;51.440;6.938;2023-01-15T11:03:35;7.70;99.90
12436;DHT22;6282;51.440;6.938;2023-01-15T11:06:07;7.60;99.90
12436;DHT22;6282;51.440;6.938;2023-01-15T11:08:39;7.40;99.90
12436;DHT22;6282;51.440;6.938;2023-01-15T11:11:17;7.50;99.90
12436;DHT22;6282;51.440;6.938;2023-01-15T11:13:52;7.40;99.90
12436;DHT22;6282;51.440;6.938;2023-01-15T11:16:37;7.30;99.90
12436;DHT22;6282;51.440;6.938;2023-01-15T11:19:28;7.30;99.90
12436;DHT22;6282;51.440;6.938;2023-01-15T11:22:15;7.20;99.90
12436;DHT22;6282;51.440;6.938;2023-01-15T11:24:47;7.20;99.90
12436;DHT22;6282;51.440;6.938;2023-01-15T11:27:18;7.20;99.90
12436;DHT22;6282;51.440;6.938;2023-01-15T11:29:50;7.20;99.90
12436;DHT22;6282;51.440;6.938;2023-01-15T11:32:22;7.20;99.90
12436;DHT22;6282;51.440;6.938;2023-01-15T11:34:53;7.20;99.90
12436;DHT22;6282;51.440;6.938;2023-01-15T11:37:21;7.30;99.90
12436;DHT22;6282;51.440;6.938;2023-01-15T11:39:52;7.30;99.90
12436;DHT22;6282;51.440;6.938;2023-01-15T11:42:19;7.30;99.90
12436;DHT22;6282;51.440;6.938;2023-01-15T11:45:12;7.40;99.90
12436;DHT22;6282;51.440;6.938;2023-01-15T11:47:56;7.30;99.90
12436;DHT22;6282;51.440;6.938;2023-01-15T11:50:50;7.20;99.90
12436;DHT22;6282;51.440;6.938;2023-01-15T11:53:21;7.20;99.90
12436;DHT22;6282;51.440;6.938;2023-01-15T11:55:54;7.20;99.90
12436;DHT22;6282;51.440;6.938;2023-01-15T11:58:26;7.20;99.90
12436;DHT22;6282;51.440;6.938;2023-01-15T12:00:53;7.20;99.90
12436;DHT22;6282;51.440;6.938;2023-01-15T12:03:24;7.20;99.90
12436;DHT22;6282;51.440;6.938;2023-01-15T12:05:59;7.20;99.90
12436;DHT22;6282;51.440;6.938;2023-01-15T12:08:47;7.20;99.90
12436;DHT22;6282;51.440;6.938;2023-01-15T12:11:34;7.20;99.90
12436;DHT22;6282;51.440;6.938;2023-01-15T12:14:23;7.30;99.90
12436;DHT22;6282;51.440;6.938;2023-01-15T12:16:58;7.30;99.90
12436;DHT22;6282;51.440;6.938;2023-01-15T12:19:32;7.20;99.90
12436;DHT22;6282;51.440;6.938;2023-01-15T12:22:20;7.20;99.90
12436;DHT22;6282;51.440;6.938;2023-01-15T12:25:10;7.20;99.90
12436;DHT22;6282;51.440;6.938;2023-01-15T12:27:55;7.20;99.90
12436;DHT22;6282;51.440;6.938;2023-01-15T12:30:28;7.30;99.90
12436;DHT22;6282;51.440;6.938;2023-01-15T12:33:10;7.20;99.90
12436;DHT22;6282;51.440;6.938;2023-01-15T12:35:43;7.10;99.90
12436;DHT22;6282;51.440;6.938;2023-01-15T12:38:16;7.20;99.90
12436;DHT22;6282;51.440;6.938;2023-01-15T12:40:48;7.20;99.90
12436;DHT22;6282;51.440;6.938;2023-01-15T12:43:22;7.40;99.90
12436;DHT22;6282;51.440;6.938;2023-01-15T12:46:11;7.20;99.90
12436;DHT22;6282;51.440;6.938;2023-01-15T12:48:44;7.30;99.90
12436;DHT22;6282;51.440;6.938;2023-01-15T12:51:19;7.30;99.90
12436;DHT22;6282;51.440;6.938;2023-01-15T12:53:50;7.20;99.90
12436;DHT22;6282;51.440;6.938;2023-01-15T12:56:22;7.20;99.90
12436;DHT22;6282;51.440;6.938;2023-01-15T12:58:54;7.30;99.90
12436;DHT22;6282;51.440;6.938;2023-01-15T13:01:28;7.30;99.90
12436;DHT22;6282;51.440;6.938;2023-01-15T13:04:07;7.20;99.90
12436;DHT22;6282;51.440;6.938;2023-01-15T13:06:39;7.20;99.90
12436;DHT22;6282;51.440;6.938;2023-01-15T13:09:13;7.20;99.90
12436;DHT22;6282;51.440;6.938;2023-01-15T13:11:42;7.10;99.90
12436;DHT22;6282;51.440;6.938;2023-01-15T13:14:13;7.20;99.90
12436;DHT22;6282;51.440;6.938;2023-01-15T13:16:44;7.20;99.90
12436;DHT22;6282;51.440;6.938;2023-01-15T13:19:26;7.20;99.90
12436;DHT22;6282;51.440;6.938;2023-01-15T13:21:59;7.20;99.90
12436;DHT22;6282;51.440;6.938;2023-01-15T13:27:37;7.10;99.90
12436;DHT22;6282;51.440;6.938;2023-01-15T13:30:15;7.10;99.90
12436;DHT22;6282;51.440;6.938;2023-01-15T13:32:45;7.10;99.90
12436;DHT22;6282;51.440;6.938;2023-01-15T13:35:24;7.10;99.90
12436;DHT22;6282;51.440;6.938;2023-01-15T13:37:54;7.10;99.90
12436;DHT22;6282;51.440;6.938;2023-01-15T13:40:26;7.10;99.90
12436;DHT22;6282;51.440;6.938;2023-01-15T13:42:55;7.10;99.90
12436;DHT22;6282;51.440;6.938;2023-01-15T13:45:31;7.10;99.90
12436;DHT22;6282;51.440;6.938;2023-01-15T13:48:04;7.10;99.90
12436;DHT22;6282;51.440;6.938;2023-01-15T13:50:34;7.10;99.90
12436;DHT22;6282;51.440;6.938;2023-01-15T13:53:05;7.10;99.90
12436;DHT22;6282;51.440;6.938;2023-01-15T13:55:35;7.10;99.90
12436;DHT22;6282;51.440;6.938;2023-01-15T13:58:18;7.10;99.90
12436;DHT22;6282;51.440;6.938;2023-01-15T14:00:46;7.00;99.90
12436;DHT22;6282;51.440;6.938;2023-01-15T14:03:27;7.10;99.90
12436;DHT22;6282;51.440;6.938;2023-01-15T14:05:56;7.10;99.90
12436;DHT22;6282;51.440;6.938;2023-01-15T14:08:25;7.20;99.90
12436;DHT22;6282;51.440;6.938;2023-01-15T14:10:52;7.20;99.90
12436;DHT22;6282;51.440;6.938;2023-01-15T14:13:45;7.20;99.90
12436;DHT22;6282;51.440;6.938;2023-01-15T14:16:42;7.20;99.90
12436;DHT22;6282;51.440;6.938;2023-01-15T14:19:29;7.20;99.90
12436;DHT22;6282;51.440;6.938;2023-01-15T14:22:11;7.10;99.90
12436;DHT22;6282;51.440;6.938;2023-01-15T14:27:58;7.20;99.90
12436;DHT22;6282;51.440;6.938;2023-01-15T14:30:45;7.20;99.90
12436;DHT22;6282;51.440;6.938;2023-01-15T14:33:26;7.20;99.90
12436;DHT22;6282;51.440;6.938;2023-01-15T14:35:55;7.20;99.90
12436;DHT22;6282;51.440;6.938;2023-01-15T14:38:24;7.20;99.90
12436;DHT22;6282;51.440;6.938;2023-01-15T14:40:56;7.20;99.90
12436;DHT22;6282;51.440;6.938;2023-01-15T14:43:26;7.20;99.90
12436;DHT22;6282;51.440;6.938;2023-01-15T14:45:55;7.10;99.90
12436;DHT22;6282;51.440;6.938;2023-01-15T14:48:36;7.10;99.90
12436;DHT22;6282;51.440;6.938;2023-01-15T14:51:09;7.10;99.90
12436;DHT22;6282;51.440;6.938;2023-01-15T14:53:39;7.10;99.90
12436;DHT22;6282;51.440;6.938;2023-01-15T14:56:17;7.20;99.90
12436;DHT22;6282;51.440;6.938;2023-01-15T14:58:49;7.20;99.90
12436;DHT22;6282;51.440;6.938;2023-01-15T15:01:30;7.20;99.90
12436;DHT22;6282;51.440;6.938;2023-01-15T15:04:02;7.20;99.90
12436;DHT22;6282;51.440;6.938;2023-01-15T15:06:32;7.20;99.90
12436;DHT22;6282;51.440;6.938;2023-01-15T15:09:03;7.20;99.90
12436;DHT22;6282;51.440;6.938;2023-01-15T15:11:37;7.20;99.90
12436;DHT22;6282;51.440;6.938;2023-01-15T15:14:37;7.20;99.90
12436;DHT22;6282;51.440;6.938;2023-01-15T15:17:16;7.20;99.90
12436;DHT22;6282;51.440;6.938;2023-01-15T15:19:47;7.10;99.90
12436;DHT22;6282;51.440;6.938;2023-01-15T15:22:17;7.10;99.90
12436;DHT22;6282;51.440;6.938;2023-01-15T15:24:47;7.10;99.90
12436;DHT22;6282;51.440;6.938;2023-01-15T15:27:17;7.10;99.90
12436;DHT22;6282;51.440;6.938;2023-01-15T15:29:44;7.10;99.90
12436;DHT22;6282;51.440;6.938;2023-01-15T15:32:14;7.10;99.90
12436;DHT22;6282;51.440;6.938;2023-01-15T15:34:44;7.10;99.90
12436;DHT22;6282;51.440;6.938;2023-01-15T15:37:16;7.10;99.90
12436;DHT22;6282;51.440;6.938;2023-01-15T15:39:50;7.10;99.90
12436;DHT22;6282;51.440;6.938;2023-01-15T15:42:20;7.00;99.90
12436;DHT22;6282;51.440;6.938;2023-01-15T15:45:15;7.00;99.90
12436;DHT22;6282;51.440;6.938;2023-01-15T15:48:12;7.00;99.90
12436;DHT22;6282;51.440;6.938;2023-01-15T15:50:57;7.00;99.90
12436;DHT22;6282;51.440;6.938;2023-01-15T15:53:24;7.00;99.90
12436;DHT22;6282;51.440;6.938;2023-01-15T15:55:51;7.00;99.90
12436;DHT22;6282;51.440;6.938;2023-01-15T15:58:23;7.00;99.90
12436;DHT22;6282;51.440;6.938;2023-01-15T16:00:51;7.00;99.90
12436;DHT22;6282;51.440;6.938;2023-01-15T16:03:22;7.00;99.90
12436;DHT22;6282;51.440;6.938;2023-01-15T16:05:57;7.00;99.90
12436;DHT22;6282;51.440;6.938;2023-01-15T16:08:24;7.00;99.90
12436;DHT22;6282;51.440;6.938;2023-01-15T16:10:53;6.90;99.90
12436;DHT22;6282;51.440;6.938;2023-01-15T16:13:26;6.90;99.90
12436;DHT22;6282;51.440;6.938;2023-01-15T16:15:55;7.00;99.90
12436;DHT22;6282;51.440;6.938;2023-01-15T16:18:25;6.90;99.90
12436;DHT22;6282;51.440;6.938;2023-01-15T16:20:53;7.00;99.90
12436;DHT22;6282;51.440;6.938;2023-01-15T16:23:23;7.00;99.90
12436;DHT22;6282;51.440;6.938;2023-01-15T16:26:05;6.90;99.90
12436;DHT22;6282;51.440;6.938;2023-01-15T16:28:36;6.90;99.90
12436;DHT22;6282;51.440;6.938;2023-01-15T16:31:06;6.90;99.90
12436;DHT22;6282;51.440;6.938;2023-01-15T16:33:35;6.90;99.90
12436;DHT22;6282;51.440;6.938;2023-01-15T16:36:03;6.90;99.90
12436;DHT22;6282;51.440;6.938;2023-01-15T16:38:34;6.90;99.90